createdAt,value
2023-05-16T00:05:37.093Z,96320.95
2023-05-16T00:15:40.154Z,96328.89
2023-05-16T00:25:43.307Z,96337.13
2023-05-16T00:35:46.436Z,96352.41
2023-05-16T00:45:49.542Z,96357.09
2023-05-16T00:55:53.072Z,96373.85
2023-05-16T01:05:57.357Z,96363.90
2023-05-16T01:16:24.689Z,96372.05
2023-05-16T01:26:30.048Z,96369.23
2023-05-16T01:36:39.243Z,96370.26
2023-05-16T01:46:46.540Z,96370.04
2023-05-16T01:56:55.525Z,96366.26
2023-05-16T02:07:00.636Z,96360.77
2023-05-16T02:17:04.037Z,96363.73
2023-05-16T02:27:07.284Z,96369.82
2023-05-16T02:37:13.052Z,96368.47
2023-05-16T02:47:16.451Z,96377.31
2023-05-16T02:57:19.702Z,96387.73
2023-05-16T03:07:22.764Z,96387.84
2023-05-16T03:17:28.660Z,96378.23
2023-05-16T03:27:33.589Z,96370.20
2023-05-16T03:37:36.706Z,96392.71
2023-05-16T03:47:40.316Z,96391.41
2023-05-16T03:57:43.990Z,96378.26
2023-05-16T04:07:47.332Z,96401.16
2023-05-16T04:17:50.400Z,96396.60
2023-05-16T04:27:53.786Z,96422.21
2023-05-16T04:37:57.089Z,96428.42
2023-05-16T04:48:01.431Z,96433.29
2023-05-16T04:58:04.576Z,96434.45
2023-05-16T05:08:07.762Z,96428.80
2023-05-16T05:18:11.174Z,96429.11
2023-05-16T05:28:14.250Z,96420.73
2023-05-16T05:38:17.329Z,96426.66
2023-05-16T05:48:20.681Z,96420.94
2023-05-16T05:58:23.738Z,96435.59
2023-05-16T06:08:26.947Z,96441.30
2023-05-16T06:18:30.175Z,96429.44
2023-05-16T06:28:33.311Z,96432.23
2023-05-16T06:38:36.575Z,96453.37
2023-05-16T06:48:39.775Z,96446.52
2023-05-16T06:58:42.818Z,96454.14
2023-05-16T07:08:46.315Z,96458.54
2023-05-16T07:18:49.682Z,96459.39
2023-05-16T07:28:53.302Z,96455.04
2023-05-16T07:38:56.459Z,96450.13
2023-05-16T07:48:59.922Z,96450.80
2023-05-16T07:59:06.128Z,96474.27
2023-05-16T08:09:09.538Z,96466.86
2023-05-16T08:19:12.752Z,96452.09
2023-05-16T08:29:16.086Z,96476.95
2023-05-16T08:39:19.133Z,96483.40
2023-05-16T08:49:23.531Z,96481.02
2023-05-16T08:59:27.310Z,96461.91
2023-05-16T09:09:30.684Z,96460.71
2023-05-16T09:19:41.615Z,96477.77
2023-05-16T09:29:45.654Z,96468.94
2023-05-16T09:39:51.184Z,96459.36
2023-05-16T09:49:54.641Z,96453.79
2023-05-16T10:00:01.669Z,96449.75
2023-05-16T10:10:08.530Z,96431.42
2023-05-16T10:20:12.952Z,96420.98
2023-05-16T10:30:17.504Z,96413.23
2023-05-16T10:40:22.240Z,96407.89
2023-05-16T10:50:35.743Z,96412.23
2023-05-16T11:00:39.925Z,96420.48
2023-05-16T11:10:43.015Z,96421.08
2023-05-16T11:20:46.190Z,96429.95
2023-05-16T11:30:52.681Z,96440.80
2023-05-16T11:41:02.330Z,96434.55
2023-05-16T11:51:06.985Z,96429.54
2023-05-16T12:01:10.455Z,96433.38
2023-05-16T12:11:14.284Z,96448.40
2023-05-16T12:21:17.572Z,96445.75
2023-05-16T12:31:30.994Z,96435.73
2023-05-16T12:41:42.329Z,96425.25
2023-05-16T12:51:50.518Z,96418.10
2023-05-16T13:01:53.979Z,96423.02
2023-05-16T13:11:57.125Z,96430.54
2023-05-16T13:22:00.403Z,96426.16
2023-05-16T13:32:03.664Z,96428.37
2023-05-16T13:42:06.764Z,96428.70
2023-05-16T13:52:09.926Z,96423.02
2023-05-16T14:02:12.927Z,96411.65
2023-05-16T14:12:16.156Z,96414.79
2023-05-16T14:22:19.530Z,96412.02
2023-05-16T14:32:22.885Z,96408.02
2023-05-16T14:42:26.153Z,96401.04
2023-05-16T14:52:29.656Z,96400.68
2023-05-16T15:02:32.742Z,96402.59
2023-05-16T15:12:36.449Z,96399.61
2023-05-16T15:22:41.349Z,96380.65
2023-05-16T15:32:44.909Z,96367.88
2023-05-16T15:42:48.157Z,96362.31
2023-05-16T15:52:51.456Z,96359.89
2023-05-16T16:02:54.783Z,96361.61
2023-05-16T16:13:04.891Z,96361.10
2023-05-16T16:23:08.387Z,96358.34
2023-05-16T16:33:11.501Z,96356.36
2023-05-16T16:43:15.055Z,96358.33
2023-05-16T16:53:18.997Z,96357.98
2023-05-16T17:03:22.220Z,96358.06
2023-05-16T17:13:25.420Z,96355.77
2023-05-16T17:23:28.819Z,96351.89
2023-05-16T17:33:32.040Z,96349.23
2023-05-16T17:43:35.147Z,96351.36
2023-05-16T17:53:38.626Z,96350.25
2023-05-16T18:03:43.498Z,96354.15
2023-05-16T18:13:47.179Z,96356.24
2023-05-16T18:23:50.498Z,96350.62
2023-05-16T18:33:53.909Z,96357.01
2023-05-16T18:43:57.045Z,96362.67
2023-05-16T18:54:00.394Z,96365.00
2023-05-16T19:04:04.064Z,96371.13
2023-05-16T19:14:33.017Z,96371.60
2023-05-16T19:24:38.048Z,96367.01
2023-05-16T19:35:15.090Z,96368.62
2023-05-16T19:45:30.886Z,96363.88
2023-05-16T19:55:37.891Z,96358.11
2023-05-16T20:05:41.644Z,96354.09
2023-05-16T20:15:44.896Z,96348.25
2023-05-16T20:25:48.178Z,96335.45
2023-05-16T20:35:53.729Z,96320.37
2023-05-16T20:45:57.139Z,96299.94
2023-05-16T20:56:00.592Z,96299.38
2023-05-16T21:06:03.983Z,96311.25
2023-05-16T21:16:07.488Z,96324.13
2023-05-16T21:26:10.688Z,96334.48
2023-05-16T21:36:13.782Z,96305.80
2023-05-16T21:46:16.836Z,96291.98
2023-05-16T21:56:20.250Z,96286.14
2023-05-16T22:06:24.469Z,96287.10
2023-05-16T22:16:27.512Z,96283.66
2023-05-16T22:26:30.660Z,96282.50
2023-05-16T22:36:33.862Z,96276.04
2023-05-16T22:46:37.085Z,96273.07
2023-05-16T22:56:40.304Z,96281.97
2023-05-16T23:06:43.350Z,96283.32
2023-05-16T23:16:46.402Z,96269.73
2023-05-16T23:26:49.725Z,96270.66
2023-05-16T23:36:52.804Z,96262.71
2023-05-16T23:46:55.995Z,96261.23
2023-05-16T23:56:59.250Z,96268.37
